Time;durP1;ratioP1;P1;durP2;ratioP2;P2;SDS_P1;SDS_P2;PMS_P1;PMS_P2;Temp;Humidity;BMP_temperature;BMP_pressure;BME280_temperature;BME280_humidity;BME280_pressure;Samples;Min_cycle;Max_cycle;Signal;HPM_P1;HPM_P2
2022/11/25 00:00:01;;;;;;;5.40;1.70;;;1.80;99.90;;;;;;5116521;28;20195;-69
2022/11/25 00:02:26;;;;;;;0.70;0.70;;;1.90;99.90;;;;;;5116261;28;20530;-70
2022/11/25 00:04:52;;;;;;;0.60;0.60;;;1.80;99.90;;;;;;5097854;28;20561;-70
2022/11/25 00:07:17;;;;;;;0.70;0.70;;;1.80;99.90;;;;;;5097903;28;20211;-70
2022/11/25 00:09:43;;;;;;;2.38;1.65;;;1.90;99.90;;;;;;5116086;28;20227;-70
2022/11/25 00:12:09;;;;;;;0.50;0.50;;;1.80;99.90;;;;;;5116309;28;20183;-70
2022/11/25 00:14:34;;;;;;;0.60;0.60;;;1.80;99.90;;;;;;5097826;28;20187;-69
2022/11/25 00:17:00;;;;;;;0.60;0.60;;;1.80;99.90;;;;;;5116490;28;20196;-69
2022/11/25 00:19:26;;;;;;;0.50;0.50;;;1.90;99.90;;;;;;5097425;28;20257;-69
2022/11/25 00:21:51;;;;;;;0.70;0.70;;;1.90;99.90;;;;;;5116056;28;20193;-69
2022/11/25 00:24:17;;;;;;;0.60;0.60;;;1.90;99.90;;;;;;5097720;28;20294;-69
2022/11/25 00:26:43;;;;;;;0.85;0.85;;;1.90;99.90;;;;;;5097381;28;20246;-69
2022/11/25 00:29:10;;;;;;;1.00;0.95;;;1.90;99.90;;;;;;5097467;28;20198;-70
2022/11/25 00:31:38;;;;;;;0.60;0.60;;;1.90;99.90;;;;;;5115716;28;20199;-69
2022/11/25 00:34:04;;;;;;;0.50;0.50;;;1.90;99.90;;;;;;5115912;28;20273;-69
2022/11/25 00:36:32;;;;;;;0.50;0.50;;;1.90;99.90;;;;;;5115539;28;20266;-69
2022/11/25 00:39:08;;;;;;;0.50;0.50;;;2.00;99.90;;;;;;5115155;28;20333;-69
2022/11/25 00:44:34;;;;;;;0.50;0.50;;;1.90;99.90;;;;;;5115679;28;20240;-70
2022/11/25 00:47:17;;;;;;;0.50;0.50;;;1.90;99.90;;;;;;5097279;28;20593;-69
2022/11/25 00:49:48;;;;;;;0.90;0.90;;;1.90;99.90;;;;;;5097080;28;20215;-69
2022/11/25 00:52:16;;;;;;;0.80;0.80;;;1.90;99.90;;;;;;5115442;28;20188;-69
2022/11/25 00:54:43;;;;;;;0.70;0.70;;;2.00;99.90;;;;;;5115246;28;20556;-69
2022/11/25 00:57:10;;;;;;;0.70;0.70;;;1.90;99.90;;;;;;5096993;28;20624;-69
2022/11/25 00:59:35;;;;;;;0.60;0.60;;;2.00;99.90;;;;;;5114920;28;20200;-70
2022/11/25 01:02:01;;;;;;;0.55;0.55;;;2.10;99.90;;;;;;5115143;28;20252;-69
2022/11/25 01:04:27;;;;;;;0.70;0.70;;;2.00;99.90;;;;;;5115090;28;20191;-70
2022/11/25 01:06:55;;;;;;;0.57;0.57;;;2.00;99.90;;;;;;5096650;28;20211;-69
2022/11/25 01:09:21;;;;;;;0.60;0.60;;;2.00;99.90;;;;;;5114805;28;20234;-70
2022/11/25 01:11:50;;;;;;;0.77;0.77;;;1.90;99.90;;;;;;5115120;28;20613;-70
2022/11/25 01:14:16;;;;;;;0.70;0.70;;;1.90;99.90;;;;;;5096860;28;20271;-69
2022/11/25 01:16:41;;;;;;;0.80;0.80;;;1.90;99.90;;;;;;5114926;28;20278;-70
2022/11/25 01:19:07;;;;;;;0.50;0.50;;;1.90;99.90;;;;;;5114837;28;20673;-70
2022/11/25 01:21:33;;;;;;;0.40;0.40;;;1.90;99.90;;;;;;5096478;28;20199;-70
2022/11/25 01:24:01;;;;;;;0.60;0.60;;;1.90;99.90;;;;;;5114832;28;20206;-69
2022/11/25 01:26:27;;;;;;;0.70;0.70;;;1.90;99.90;;;;;;5114528;28;20248;-69
2022/11/25 01:29:00;;;;;;;0.85;0.85;;;1.90;99.90;;;;;;5114762;28;20666;-70
2022/11/25 01:31:28;;;;;;;0.70;0.70;;;1.90;99.90;;;;;;5113681;28;20187;-70
2022/11/25 01:33:59;;;;;;;0.60;0.60;;;1.90;99.90;;;;;;5114523;28;20278;-69
2022/11/25 01:36:25;;;;;;;0.57;0.57;;;1.90;99.90;;;;;;5114516;28;20188;-70
2022/11/25 01:38:53;;;;;;;0.60;0.60;;;1.90;99.90;;;;;;5098654;28;20538;-69
2022/11/25 01:41:21;;;;;;;0.60;0.60;;;1.90;99.90;;;;;;5094068;28;20189;-70
2022/11/25 01:44:16;;;;;;;0.60;0.60;;;1.90;99.90;;;;;;5075889;28;20208;-69
2022/11/25 01:46:53;;;;;;;0.63;0.63;;;1.90;99.90;;;;;;5093803;28;20294;-69
2022/11/25 01:49:25;;;;;;;0.50;0.50;;;1.80;99.90;;;;;;5084692;28;20225;-70
2022/11/25 01:51:57;;;;;;;0.40;0.40;;;1.80;99.90;;;;;;5114675;28;20658;-70
2022/11/25 01:54:28;;;;;;;0.50;0.50;;;1.80;99.90;;;;;;5114121;28;20658;-70
2022/11/25 01:57:08;;;;;;;0.60;0.60;;;1.80;99.90;;;;;;5113905;28;20672;-69
2022/11/25 01:59:38;;;;;;;1.05;1.02;;;1.80;99.90;;;;;;5114063;28;20214;-69
2022/11/25 02:02:04;;;;;;;0.50;0.50;;;1.80;99.90;;;;;;5095861;28;20230;-69
2022/11/25 02:04:34;;;;;;;0.60;0.60;;;1.80;99.90;;;;;;5113958;28;20184;-70
2022/11/25 02:07:26;;;;;;;0.47;0.47;;;1.80;99.90;;;;;;5113707;28;20203;-69
2022/11/25 02:09:52;;;;;;;0.70;0.70;;;1.80;99.90;;;;;;5114014;28;20219;-69
2022/11/25 02:12:21;;;;;;;0.60;0.60;;;1.80;99.90;;;;;;5113896;28;20222;-70
2022/11/25 02:14:49;;;;;;;0.60;0.60;;;1.90;99.90;;;;;;5113926;28;20188;-70
2022/11/25 02:17:15;;;;;;;0.50;0.50;;;1.90;99.90;;;;;;5114209;28;20195;-70
2022/11/25 02:19:41;;;;;;;0.60;0.60;;;1.90;99.90;;;;;;5113656;28;20194;-70
2022/11/25 02:22:14;;;;;;;0.60;0.60;;;1.90;99.90;;;;;;5113868;28;20202;-69
2022/11/25 02:24:45;;;;;;;0.40;0.40;;;1.90;99.90;;;;;;5113498;28;20578;-70
2022/11/25 02:27:12;;;;;;;0.60;0.60;;;1.80;99.90;;;;;;5113526;28;20214;-70
2022/11/25 02:29:38;;;;;;;0.95;0.95;;;1.90;99.90;;;;;;5113279;28;20203;-70
2022/11/25 02:32:04;;;;;;;0.60;0.60;;;1.80;99.90;;;;;;5095462;28;20199;-69
2022/11/25 02:34:30;;;;;;;0.50;0.50;;;1.80;99.90;;;;;;5113415;28;20224;-70
2022/11/25 02:36:55;;;;;;;0.60;0.60;;;1.80;99.90;;;;;;5113549;28;20620;-70
2022/11/25 02:39:22;;;;;;;0.60;0.60;;;1.80;99.90;;;;;;5113025;28;20196;-70
2022/11/25 02:41:53;;;;;;;0.60;0.60;;;1.80;99.90;;;;;;5113460;28;20219;-69
2022/11/25 02:44:19;;;;;;;0.60;0.60;;;1.80;99.90;;;;;;5113409;28;20188;-70
2022/11/25 02:46:45;;;;;;;0.63;0.63;;;1.70;99.90;;;;;;5113221;28;20573;-74
2022/11/25 02:49:11;;;;;;;0.50;0.50;;;1.80;99.90;;;;;;5094960;28;20230;-74
2022/11/25 02:51:38;;;;;;;0.80;0.80;;;1.70;99.90;;;;;;5094880;28;20222;-74
2022/11/25 02:54:05;;;;;;;0.50;0.50;;;1.70;99.90;;;;;;5113109;28;20191;-74
2022/11/25 02:56:33;;;;;;;0.85;0.85;;;1.70;99.90;;;;;;5113053;28;20676;-74
2022/11/25 02:58:59;;;;;;;0.50;0.50;;;1.70;99.90;;;;;;5112909;28;20199;-75
2022/11/25 03:01:24;;;;;;;1.15;1.02;;;1.70;99.90;;;;;;5112394;28;20180;-74
2022/11/25 03:03:50;;;;;;;0.60;0.60;;;1.70;99.90;;;;;;5113259;28;20240;-74
2022/11/25 03:06:16;;;;;;;0.75;0.65;;;1.70;99.90;;;;;;5113211;28;20278;-74
2022/11/25 03:08:42;;;;;;;0.85;0.85;;;1.70;99.90;;;;;;5113297;28;20219;-74
2022/11/25 03:11:07;;;;;;;0.60;0.60;;;1.70;99.90;;;;;;5094890;28;20206;-74
2022/11/25 03:13:33;;;;;;;0.57;0.57;;;1.70;99.90;;;;;;5113063;28;20652;-74
2022/11/25 03:15:59;;;;;;;0.50;0.50;;;1.70;99.90;;;;;;5113092;28;20554;-74
2022/11/25 03:18:25;;;;;;;0.55;0.55;;;1.70;99.90;;;;;;5094680;28;20201;-74
2022/11/25 03:20:54;;;;;;;1.27;1.15;;;1.70;99.90;;;;;;5113075;28;20664;-74
2022/11/25 03:23:20;;;;;;;0.52;0.52;;;1.70;99.90;;;;;;5112829;28;20217;-74
2022/11/25 03:25:46;;;;;;;0.70;0.70;;;1.70;99.90;;;;;;5112782;28;20240;-74
2022/11/25 03:28:12;;;;;;;1.30;1.20;;;1.70;99.90;;;;;;5112987;28;20265;-74
2022/11/25 03:30:37;;;;;;;0.55;0.55;;;1.70;99.90;;;;;;5112718;28;20252;-74
2022/11/25 03:33:03;;;;;;;0.60;0.60;;;1.60;99.90;;;;;;5112945;28;20194;-74
2022/11/25 03:35:29;;;;;;;0.60;0.60;;;1.60;99.90;;;;;;5094426;28;20202;-75
2022/11/25 03:37:55;;;;;;;0.47;0.47;;;1.60;99.90;;;;;;5104715;28;20200;-75
2022/11/25 03:40:20;;;;;;;0.47;0.47;;;1.60;99.90;;;;;;5092327;28;20211;-73
2022/11/25 03:42:46;;;;;;;0.60;0.60;;;1.60;99.90;;;;;;5109497;28;20208;-73
2022/11/25 03:45:14;;;;;;;0.70;0.70;;;1.60;99.90;;;;;;5112632;28;20274;-73
2022/11/25 03:47:43;;;;;;;0.60;0.60;;;1.60;99.90;;;;;;5112590;28;20207;-74
2022/11/25 03:50:10;;;;;;;0.60;0.60;;;1.60;99.90;;;;;;5094297;28;20551;-75
2022/11/25 03:52:37;;;;;;;0.70;0.70;;;1.60;99.90;;;;;;5094420;28;20202;-74
2022/11/25 03:55:04;;;;;;;0.60;0.60;;;1.60;99.90;;;;;;5113965;28;20192;-74
2022/11/25 03:57:29;;;;;;;0.90;0.90;;;1.60;99.90;;;;;;5116322;28;20187;-74
2022/11/25 03:59:55;;;;;;;0.60;0.60;;;1.60;99.90;;;;;;5098287;28;20202;-74
2022/11/25 04:02:20;;;;;;;0.60;0.60;;;1.60;99.90;;;;;;5088502;28;20196;-74
2022/11/25 04:04:46;;;;;;;0.43;0.43;;;1.70;99.90;;;;;;5078195;28;20307;-74
2022/11/25 04:07:12;;;;;;;0.50;0.50;;;1.60;99.90;;;;;;5096035;28;20200;-74
2022/11/25 04:09:37;;;;;;;0.50;0.50;;;1.60;99.90;;;;;;5095630;28;20228;-74
2022/11/25 04:14:47;;;;;;;0.60;0.60;;;1.60;99.90;;;;;;5095952;28;20207;-74
2022/11/25 04:17:13;;;;;;;0.70;0.70;;;1.60;99.90;;;;;;5095869;28;20267;-74
2022/11/25 04:19:38;;;;;;;0.65;0.65;;;1.60;99.90;;;;;;5077429;28;20200;-74
2022/11/25 04:22:04;;;;;;;0.65;0.65;;;1.60;99.90;;;;;;5095687;28;20199;-75
2022/11/25 04:24:30;;;;;;;0.50;0.50;;;1.60;99.90;;;;;;5077337;28;20200;-75
2022/11/25 04:26:55;;;;;;;0.60;0.60;;;1.60;99.90;;;;;;5095554;28;20200;-75
2022/11/25 04:29:21;;;;;;;0.65;0.65;;;1.60;99.90;;;;;;5095348;28;20655;-74
2022/11/25 04:31:47;;;;;;;0.55;0.55;;;1.60;99.90;;;;;;5095543;28;20237;-74
2022/11/25 04:34:12;;;;;;;0.63;0.63;;;1.60;99.90;;;;;;5077364;28;20192;-74
2022/11/25 04:36:38;;;;;;;0.60;0.60;;;1.60;99.90;;;;;;5077237;28;20197;-74
2022/11/25 04:39:04;;;;;;;0.57;0.57;;;1.50;99.90;;;;;;5094967;28;20200;-75
2022/11/25 04:41:30;;;;;;;0.60;0.60;;;1.50;99.90;;;;;;5080499;28;20558;-75
2022/11/25 04:43:58;;;;;;;0.70;0.70;;;1.50;99.90;;;;;;5077200;28;20200;-74
2022/11/25 04:46:30;;;;;;;0.52;0.52;;;1.60;99.90;;;;;;5094718;28;20279;-74
2022/11/25 04:48:55;;;;;;;0.40;0.40;;;1.60;99.90;;;;;;5095008;28;20195;-74
2022/11/25 04:51:21;;;;;;;0.70;0.70;;;1.60;99.90;;;;;;5094994;28;20596;-74
2022/11/25 04:53:47;;;;;;;0.60;0.60;;;1.60;99.90;;;;;;5095102;28;20188;-74
2022/11/25 04:56:18;;;;;;;1.15;1.05;;;1.60;99.90;;;;;;5095197;28;20195;-74
2022/11/25 05:01:28;;;;;;;0.70;0.70;;;1.50;99.90;;;;;;5094824;28;20684;-74
2022/11/25 05:03:53;;;;;;;0.60;0.60;;;1.50;99.90;;;;;;5076873;28;20204;-74
2022/11/25 05:06:19;;;;;;;0.55;0.55;;;1.50;99.90;;;;;;5093586;28;20192;-74
2022/11/25 05:08:48;;;;;;;0.60;0.60;;;1.50;99.90;;;;;;5095937;28;20299;-75
2022/11/25 05:11:14;;;;;;;0.60;0.60;;;1.50;99.90;;;;;;5115259;28;20601;-74
2022/11/25 05:13:40;;;;;;;3.33;1.63;;;1.60;99.90;;;;;;5114982;28;20184;-74
2022/11/25 05:16:06;;;;;;;0.60;0.60;;;1.60;99.90;;;;;;5115090;28;20563;-74
2022/11/25 05:18:32;;;;;;;0.60;0.60;;;1.60;99.90;;;;;;5114768;28;20416;-75
2022/11/25 05:21:04;;;;;;;0.68;0.68;;;1.60;99.90;;;;;;5114959;28;20236;-73
2022/11/25 05:23:30;;;;;;;0.60;0.60;;;1.60;99.90;;;;;;5114656;28;20263;-74
2022/11/25 05:26:03;;;;;;;0.70;0.70;;;1.60;99.90;;;;;;5114917;28;20562;-74
2022/11/25 05:28:30;;;;;;;0.60;0.60;;;1.60;99.90;;;;;;5096279;28;20577;-74
2022/11/25 05:30:56;;;;;;;0.68;0.68;;;1.60;99.90;;;;;;5096297;28;20192;-73
2022/11/25 05:33:22;;;;;;;0.60;0.60;;;1.60;99.90;;;;;;5115321;27;20188;-74
2022/11/25 05:35:59;;;;;;;0.60;0.60;;;1.60;99.90;;;;;;5116965;27;20223;-74
2022/11/25 05:38:25;;;;;;;0.60;0.60;;;1.60;99.90;;;;;;5122419;27;20195;-74
2022/11/25 05:40:51;;;;;;;0.60;0.60;;;1.60;99.90;;;;;;5114250;28;20208;-73
2022/11/25 05:43:17;;;;;;;0.70;0.70;;;1.60;99.90;;;;;;5096137;28;20203;-73
2022/11/25 05:45:42;;;;;;;0.60;0.60;;;1.60;99.90;;;;;;5114283;28;20196;-74
2022/11/25 05:48:08;;;;;;;0.57;0.57;;;1.60;99.90;;;;;;5114435;28;20633;-74
2022/11/25 05:50:35;;;;;;;0.60;0.60;;;1.60;99.90;;;;;;5114258;28;20188;-73
2022/11/25 05:53:01;;;;;;;0.60;0.60;;;1.60;99.90;;;;;;5114279;28;20191;-73
2022/11/25 05:55:26;;;;;;;0.60;0.60;;;1.60;99.90;;;;;;5095875;28;20608;-73
2022/11/25 05:57:52;;;;;;;0.52;0.52;;;1.60;99.90;;;;;;5114161;28;20195;-73
2022/11/25 06:00:18;;;;;;;0.60;0.60;;;1.60;99.90;;;;;;5114231;28;20199;-73
2022/11/25 06:02:43;;;;;;;0.70;0.70;;;1.60;99.90;;;;;;5113958;28;20192;-73
2022/11/25 06:05:09;;;;;;;0.50;0.50;;;1.60;99.90;;;;;;5095845;28;20559;-72
2022/11/25 06:07:35;;;;;;;0.60;0.60;;;1.60;99.90;;;;;;5095495;28;20247;-73
2022/11/25 06:10:00;;;;;;;0.50;0.50;;;1.60;99.90;;;;;;5113895;28;20227;-73
2022/11/25 06:12:26;;;;;;;0.60;0.60;;;1.60;99.90;;;;;;5113829;28;20206;-73
2022/11/25 06:14:52;;;;;;;0.50;0.50;;;1.60;99.90;;;;;;5113816;28;20681;-73
2022/11/25 06:17:17;;;;;;;0.70;0.70;;;1.60;99.90;;;;;;5113565;28;20202;-73
2022/11/25 06:19:43;;;;;;;0.60;0.60;;;1.60;99.90;;;;;;5095532;28;20651;-73
2022/11/25 06:22:08;;;;;;;0.50;0.50;;;1.70;99.90;;;;;;5113869;28;20261;-73
2022/11/25 06:24:34;;;;;;;0.70;0.70;;;1.60;99.90;;;;;;5095241;28;20673;-73
2022/11/25 06:27:00;;;;;;;0.50;0.50;;;1.60;99.90;;;;;;5095372;28;20265;-73
2022/11/25 06:29:25;;;;;;;0.50;0.50;;;1.60;99.90;;;;;;5113455;28;20241;-73
2022/11/25 06:31:51;;;;;;;1.15;0.95;;;1.60;99.90;;;;;;5115029;27;20311;-73
2022/11/25 06:34:17;;;;;;;0.50;0.50;;;1.60;99.90;;;;;;5134293;27;20207;-73
2022/11/25 06:36:42;;;;;;;0.65;0.65;;;1.60;99.90;;;;;;5115577;27;20597;-73
2022/11/25 06:39:08;;;;;;;0.50;0.50;;;1.60;99.90;;;;;;5115022;27;20234;-72
2022/11/25 06:41:34;;;;;;;0.60;0.60;;;1.70;99.90;;;;;;5095040;28;20530;-73
2022/11/25 06:44:00;;;;;;;0.60;0.60;;;1.70;99.90;;;;;;5113452;28;20183;-73
2022/11/25 06:46:25;;;;;;;0.55;0.55;;;1.70;99.90;;;;;;5113316;28;20191;-72
2022/11/25 06:48:52;;;;;;;0.50;0.50;;;1.60;99.90;;;;;;5113269;28;20675;-74
2022/11/25 06:51:18;;;;;;;0.50;0.50;;;1.60;99.90;;;;;;5113378;28;20660;-73
2022/11/25 06:53:44;;;;;;;0.60;0.60;;;1.60;99.90;;;;;;5095060;28;20203;-72
2022/11/25 06:56:20;;;;;;;0.52;0.52;;;1.60;99.90;;;;;;5113425;28;20196;-73
2022/11/25 06:58:47;;;;;;;1.55;1.45;;;1.60;99.90;;;;;;5095070;28;20536;-73
2022/11/25 07:01:16;;;;;;;0.60;0.60;;;1.70;99.90;;;;;;5113215;28;20706;-73
2022/11/25 07:03:44;;;;;;;0.80;0.80;;;1.70;99.90;;;;;;5113084;28;20705;-72
2022/11/25 07:06:12;;;;;;;6.63;1.33;;;1.70;99.90;;;;;;5113361;28;20646;-72
2022/11/25 07:08:38;;;;;;;0.65;0.65;;;1.70;99.90;;;;;;5113232;28;20570;-72
2022/11/25 07:11:05;;;;;;;0.63;0.63;;;1.60;99.90;;;;;;5113002;28;20199;-72
2022/11/25 07:13:31;;;;;;;0.60;0.60;;;1.60;99.90;;;;;;5094750;28;20747;-72
2022/11/25 07:16:00;;;;;;;0.65;0.65;;;1.60;99.90;;;;;;5113178;28;20195;-72
2022/11/25 07:18:29;;;;;;;0.70;0.70;;;1.70;99.90;;;;;;5095176;28;20195;-72
2022/11/25 07:20:54;;;;;;;0.50;0.50;;;1.70;99.90;;;;;;5095206;28;20586;-72
2022/11/25 07:23:20;;;;;;;0.63;0.63;;;1.70;99.90;;;;;;5113250;28;20274;-73
2022/11/25 07:25:46;;;;;;;0.68;0.68;;;1.60;99.90;;;;;;5113165;28;20199;-73
2022/11/25 07:28:11;;;;;;;0.60;0.60;;;1.70;99.90;;;;;;5113247;28;20203;-73
2022/11/25 07:30:37;;;;;;;0.55;0.55;;;1.70;99.90;;;;;;5115294;28;20621;-72
2022/11/25 07:33:02;;;;;;;0.50;0.50;;;1.70;99.90;;;;;;5117142;28;20187;-74
2022/11/25 07:35:28;;;;;;;0.85;0.85;;;1.60;99.90;;;;;;5116862;28;20284;-74
2022/11/25 07:37:54;;;;;;;0.45;0.45;;;1.60;99.90;;;;;;5108954;28;20564;-73
2022/11/25 07:40:19;;;;;;;1.40;1.13;;;1.60;99.90;;;;;;5078287;28;20203;-73
2022/11/25 07:42:45;;;;;;;0.68;0.68;;;1.60;99.90;;;;;;5096480;28;20220;-73
2022/11/25 07:45:11;;;;;;;0.47;0.47;;;1.70;99.90;;;;;;5078265;28;20222;-73
2022/11/25 07:47:36;;;;;;;0.60;0.60;;;1.70;99.90;;;;;;5077980;28;20215;-73
2022/11/25 07:50:02;;;;;;;0.63;0.63;;;1.60;99.90;;;;;;5096410;28;20184;-73
2022/11/25 07:52:28;;;;;;;0.65;0.65;;;1.60;99.90;;;;;;5078001;28;20538;-73
2022/11/25 07:54:54;;;;;;;0.68;0.68;;;1.60;99.90;;;;;;5078068;28;20199;-73
2022/11/25 07:57:19;;;;;;;0.60;0.60;;;1.60;99.90;;;;;;5096045;28;20196;-72
2022/11/25 07:59:45;;;;;;;0.65;0.65;;;1.60;99.90;;;;;;5078091;28;20196;-73
2022/11/25 08:02:11;;;;;;;0.50;0.50;;;1.60;99.90;;;;;;5077951;28;20659;-73
2022/11/25 08:04:36;;;;;;;0.45;0.45;;;1.70;99.90;;;;;;5095960;28;20199;-73
2022/11/25 08:07:02;;;;;;;0.60;0.60;;;1.60;99.90;;;;;;5106618;28;20218;-73
2022/11/25 08:09:28;;;;;;;0.70;0.70;;;1.60;99.90;;;;;;5116093;28;20223;-73
2022/11/25 08:11:53;;;;;;;0.60;0.60;;;1.60;99.90;;;;;;5098051;28;20195;-73
2022/11/25 08:14:19;;;;;;;0.57;0.57;;;1.60;99.90;;;;;;5097940;28;20202;-72
2022/11/25 08:16:45;;;;;;;0.60;0.60;;;1.70;99.90;;;;;;5116224;28;20722;-73
2022/11/25 08:19:14;;;;;;;0.70;0.70;;;1.60;99.90;;;;;;5097866;28;20316;-73
2022/11/25 08:21:40;;;;;;;0.60;0.60;;;1.60;99.90;;;;;;5115969;28;20196;-73
2022/11/25 08:24:06;;;;;;;0.65;0.65;;;1.70;99.90;;;;;;5079950;28;20717;-73
2022/11/25 08:26:35;;;;;;;0.60;0.60;;;1.70;99.90;;;;;;5095397;28;20185;-73
2022/11/25 08:29:02;;;;;;;0.55;0.55;;;1.70;99.90;;;;;;5095633;28;20625;-73
2022/11/25 08:31:31;;;;;;;0.60;0.60;;;1.70;99.90;;;;;;5081993;28;20199;-73
2022/11/25 08:33:57;;;;;;;0.68;0.68;;;1.70;99.90;;;;;;5077370;28;20539;-73
2022/11/25 08:36:24;;;;;;;0.60;0.60;;;1.70;99.90;;;;;;5095328;28;20219;-73
2022/11/25 08:38:53;;;;;;;0.52;0.52;;;1.80;99.90;;;;;;5073411;28;20204;-73
2022/11/25 08:41:29;;;;;;;0.50;0.50;;;1.70;99.90;;;;;;5074917;28;20263;-73
2022/11/25 08:43:56;;;;;;;0.90;0.90;;;1.70;99.90;;;;;;5075060;28;20216;-73
2022/11/25 08:46:25;;;;;;;0.90;0.90;;;1.70;99.90;;;;;;5074966;28;20659;-73
2022/11/25 08:48:52;;;;;;;0.57;0.57;;;1.70;99.90;;;;;;5056936;28;20307;-74
2022/11/25 08:51:23;;;;;;;0.50;0.50;;;1.80;99.90;;;;;;5056898;28;20312;-74
2022/11/25 08:53:50;;;;;;;0.70;0.70;;;1.70;99.90;;;;;;5074893;28;20643;-73
2022/11/25 08:56:16;;;;;;;0.60;0.60;;;1.70;99.90;;;;;;5074874;28;20220;-74
2022/11/25 08:58:42;;;;;;;0.52;0.52;;;1.70;99.90;;;;;;5074651;28;20204;-73
2022/11/25 09:01:09;;;;;;;0.63;0.63;;;1.70;99.90;;;;;;5056784;28;20576;-73
2022/11/25 09:03:38;;;;;;;0.50;0.50;;;1.80;99.90;;;;;;5069498;28;20655;-73
2022/11/25 09:06:06;;;;;;;0.50;0.50;;;1.70;99.90;;;;;;5094942;28;20188;-74
2022/11/25 09:08:32;;;;;;;0.60;0.60;;;1.70;99.90;;;;;;5076676;28;20361;-73
2022/11/25 09:10:58;;;;;;;0.55;0.55;;;1.80;99.90;;;;;;5114256;28;20231;-72
2022/11/25 09:13:25;;;;;;;0.50;0.50;;;1.80;99.90;;;;;;5115011;28;20190;-73
2022/11/25 09:15:51;;;;;;;0.45;0.45;;;1.80;99.90;;;;;;5115064;28;20577;-73
2022/11/25 09:18:19;;;;;;;0.57;0.57;;;1.80;99.90;;;;;;5114941;28;20287;-72
2022/11/25 09:20:45;;;;;;;0.50;0.50;;;1.80;99.90;;;;;;5115019;28;20554;-73
2022/11/25 09:23:11;;;;;;;0.50;0.50;;;1.80;99.90;;;;;;5114850;28;20213;-72
2022/11/25 09:25:37;;;;;;;0.70;0.70;;;1.80;99.90;;;;;;5114790;28;20203;-73
2022/11/25 09:28:04;;;;;;;1.30;1.20;;;1.80;99.90;;;;;;5114503;28;20629;-73
2022/11/25 09:30:30;;;;;;;0.50;0.50;;;1.80;99.90;;;;;;5114671;28;20188;-73
2022/11/25 09:32:56;;;;;;;0.68;0.68;;;1.80;99.90;;;;;;5115082;28;20237;-72
2022/11/25 09:35:23;;;;;;;0.52;0.52;;;1.80;99.90;;;;;;5096312;28;20199;-73
2022/11/25 09:37:49;;;;;;;0.65;0.65;;;1.90;99.90;;;;;;5092754;28;20659;-73
2022/11/25 09:40:35;;;;;;;0.70;0.70;;;1.90;99.90;;;;;;5094405;28;20253;-74
2022/11/25 09:46:41;;;;;;;0.65;0.65;;;1.90;99.90;;;;;;5062684;28;20196;-74
2022/11/25 09:49:38;;;;;;;0.50;0.50;;;2.00;99.90;;;;;;5094091;28;20594;-73
2022/11/25 09:52:32;;;;;;;0.60;0.60;;;2.00;99.90;;;;;;5093724;28;20196;-74
2022/11/25 09:55:16;;;;;;;0.95;0.90;;;2.00;99.90;;;;;;5075727;28;20585;-73
2022/11/25 09:57:59;;;;;;;0.47;0.47;;;2.00;99.90;;;;;;5093730;28;20192;-73
2022/11/25 10:00:41;;;;;;;0.55;0.55;;;2.10;99.90;;;;;;5111701;28;20196;-73
2022/11/25 10:03:36;;;;;;;0.70;0.70;;;2.10;99.90;;;;;;5095929;28;20665;-73
2022/11/25 10:06:18;;;;;;;0.50;0.50;;;2.10;99.90;;;;;;5095927;28;20192;-73
2022/11/25 10:08:48;;;;;;;0.45;0.45;;;2.10;99.90;;;;;;5095530;28;20219;-73
2022/11/25 10:11:20;;;;;;;0.50;0.50;;;2.10;99.90;;;;;;5095716;28;20667;-73
2022/11/25 10:13:51;;;;;;;0.60;0.60;;;2.10;99.90;;;;;;5113983;28;20229;-75
2022/11/25 10:16:32;;;;;;;0.70;0.70;;;2.20;99.90;;;;;;5098736;28;20195;-74
2022/11/25 10:19:19;;;;;;;0.60;0.60;;;2.20;99.90;;;;;;5075367;28;20662;-75
2022/11/25 10:21:45;;;;;;;0.60;0.60;;;2.20;99.90;;;;;;5075240;28;20283;-72
2022/11/25 10:24:16;;;;;;;0.40;0.40;;;2.20;99.90;;;;;;5092982;28;20276;-75
2022/11/25 10:26:45;;;;;;;0.70;0.70;;;2.20;99.90;;;;;;5093148;28;20220;-75
2022/11/25 10:29:13;;;;;;;1.10;1.05;;;2.20;99.90;;;;;;5075055;28;20275;-75
2022/11/25 10:31:42;;;;;;;0.60;0.60;;;2.30;99.90;;;;;;5093088;28;20242;-72
2022/11/25 10:34:34;;;;;;;0.60;0.60;;;2.20;99.90;;;;;;5093263;28;20652;-75
2022/11/25 10:37:04;;;;;;;0.50;0.50;;;2.20;99.90;;;;;;5074612;28;20659;-72
2022/11/25 10:39:33;;;;;;;0.47;0.47;;;2.20;99.90;;;;;;5072579;28;20204;-72
2022/11/25 10:42:07;;;;;;;0.60;0.60;;;2.20;99.90;;;;;;5054909;28;20572;-74
2022/11/25 10:44:35;;;;;;;0.52;0.52;;;2.30;99.90;;;;;;5072859;28;20280;-72
2022/11/25 10:47:25;;;;;;;0.50;0.50;;;2.30;99.90;;;;;;5072776;28;20211;-72
2022/11/25 10:50:00;;;;;;;0.63;0.63;;;2.20;99.90;;;;;;5072842;28;20664;-72
2022/11/25 10:52:29;;;;;;;0.50;0.50;;;2.20;99.90;;;;;;5072668;28;20188;-72
2022/11/25 10:55:06;;;;;;;0.73;0.73;;;2.10;99.90;;;;;;5072598;28;20188;-72
2022/11/25 10:57:32;;;;;;;1.13;1.08;;;2.20;99.90;;;;;;5072524;28;20193;-72
2022/11/25 10:59:59;;;;;;;0.80;0.80;;;2.20;99.90;;;;;;5072696;28;20216;-73
2022/11/25 11:02:33;;;;;;;0.50;0.50;;;2.20;99.90;;;;;;5072559;28;20192;-72
2022/11/25 11:05:02;;;;;;;0.60;0.60;;;2.20;99.90;;;;;;5053841;28;20199;-73
2022/11/25 11:07:31;;;;;;;0.80;0.80;;;2.20;99.90;;;;;;5054287;28;20209;-72
2022/11/25 11:10:18;;;;;;;0.60;0.60;;;2.30;99.90;;;;;;5083736;28;20255;-72
2022/11/25 11:12:58;;;;;;;0.80;0.80;;;2.30;99.90;;;;;;5091033;28;20199;-72
2022/11/25 11:15:29;;;;;;;0.50;0.50;;;2.30;99.90;;;;;;5094626;28;20785;-72
2022/11/25 11:17:57;;;;;;;0.60;0.60;;;2.30;99.90;;;;;;5093797;28;20195;-72
2022/11/25 11:20:30;;;;;;;0.70;0.70;;;2.30;99.90;;;;;;5094198;28;20278;-72
2022/11/25 11:23:09;;;;;;;0.50;0.50;;;2.20;99.90;;;;;;5113056;28;20192;-72
2022/11/25 11:25:37;;;;;;;0.60;0.60;;;2.20;99.90;;;;;;5094545;28;20203;-73
2022/11/25 11:28:22;;;;;;;0.63;0.63;;;2.30;99.90;;;;;;5094708;28;20663;-73
2022/11/25 11:31:19;;;;;;;0.52;0.52;;;2.30;99.90;;;;;;5112977;28;20183;-71
2022/11/25 11:33:59;;;;;;;0.50;0.50;;;2.30;99.90;;;;;;5093021;28;20671;-72
2022/11/25 11:37:04;;;;;;;0.60;0.60;;;2.30;99.90;;;;;;5112851;28;20646;-72
2022/11/25 11:39:59;;;;;;;0.57;0.57;;;2.30;99.90;;;;;;5074125;28;20238;-73
2022/11/25 11:42:55;;;;;;;0.60;0.60;;;2.30;99.90;;;;;;5092482;28;20184;-72
2022/11/25 11:45:24;;;;;;;0.60;0.60;;;2.30;99.90;;;;;;5074139;28;20196;-72
2022/11/25 11:48:17;;;;;;;0.60;0.60;;;2.30;99.90;;;;;;5091146;28;20215;-72
2022/11/25 11:50:50;;;;;;;0.70;0.70;;;2.30;99.90;;;;;;5091071;28;20192;-72
2022/11/25 11:54:06;;;;;;;0.50;0.50;;;2.40;99.90;;;;;;5091168;28;20663;-72
2022/11/25 11:56:42;;;;;;;0.57;0.57;;;2.40;99.90;;;;;;5092181;28;20643;-72
2022/11/25 11:59:45;;;;;;;0.60;0.60;;;2.40;99.90;;;;;;5092232;28;20192;-73
2022/11/25 12:02:13;;;;;;;0.60;0.60;;;2.40;99.90;;;;;;5091112;28;20574;-73
2022/11/25 12:05:08;;;;;;;0.50;0.50;;;2.40;99.90;;;;;;5092161;28;20197;-72
2022/11/25 12:07:53;;;;;;;0.50;0.50;;;2.30;99.90;;;;;;5089917;28;20559;-73
2022/11/25 12:10:23;;;;;;;0.50;0.50;;;2.40;99.90;;;;;;5126828;28;20223;-73
2022/11/25 12:13:07;;;;;;;0.57;0.57;;;2.30;99.90;;;;;;5114692;28;20286;-71
2022/11/25 12:15:55;;;;;;;0.60;0.60;;;2.40;99.90;;;;;;5105675;28;20558;-73
2022/11/25 12:18:46;;;;;;;0.60;0.60;;;2.40;99.90;;;;;;5116110;28;20642;-72
2022/11/25 12:21:30;;;;;;;0.60;0.60;;;2.40;99.90;;;;;;5116179;28;20662;-72
2022/11/25 12:24:16;;;;;;;0.50;0.50;;;2.30;99.90;;;;;;5097802;28;20199;-73
2022/11/25 12:27:40;;;;;;;0.60;0.60;;;2.30;99.90;;;;;;5115950;28;20187;-73
2022/11/25 12:30:09;;;;;;;0.57;0.57;;;2.30;99.90;;;;;;5013537;28;20211;-73
2022/11/25 12:32:43;;;;;;;0.57;0.57;;;2.30;99.90;;;;;;4997048;28;20199;-72
2022/11/25 12:35:09;;;;;;;0.60;0.60;;;2.30;99.90;;;;;;5013480;28;20207;-72
2022/11/25 12:37:49;;;;;;;0.70;0.70;;;2.30;99.90;;;;;;5008034;28;20210;-73
2022/11/25 12:40:23;;;;;;;0.57;0.57;;;2.30;99.90;;;;;;4993841;28;20200;-73
2022/11/25 12:42:51;;;;;;;0.65;0.65;;;2.30;99.90;;;;;;4993677;28;20242;-72
2022/11/25 12:45:25;;;;;;;0.57;0.57;;;2.30;99.90;;;;;;4993715;28;20199;-73
2022/11/25 12:47:51;;;;;;;0.60;0.60;;;2.30;99.90;;;;;;5000180;28;20755;-73
2022/11/25 12:50:41;;;;;;;0.70;0.70;;;2.30;99.90;;;;;;5013294;28;20305;-73
2022/11/25 12:53:12;;;;;;;0.70;0.70;;;2.30;99.90;;;;;;4996812;28;20199;-73
2022/11/25 12:55:39;;;;;;;0.50;0.50;;;2.30;99.90;;;;;;5012913;28;20218;-72
2022/11/25 12:58:23;;;;;;;0.47;0.47;;;2.30;99.90;;;;;;4996704;28;20238;-72
2022/11/25 13:01:22;;;;;;;0.65;0.65;;;2.30;99.90;;;;;;5053045;28;20216;-72
2022/11/25 13:04:42;;;;;;;0.65;0.65;;;2.30;99.90;;;;;;5081485;28;20714;-73
2022/11/25 13:07:34;;;;;;;0.60;0.60;;;2.20;99.90;;;;;;5012472;28;20310;-73
2022/11/25 13:10:06;;;;;;;0.52;0.52;;;2.20;99.90;;;;;;4996238;28;20230;-73
2022/11/25 13:12:58;;;;;;;0.60;0.60;;;2.20;99.90;;;;;;5012247;28;20191;-73
2022/11/25 13:15:36;;;;;;;1.10;0.93;;;2.20;99.90;;;;;;5012584;28;20740;-73
2022/11/25 13:18:10;;;;;;;0.55;0.55;;;2.20;99.90;;;;;;4996280;28;20206;-73
2022/11/25 13:20:41;;;;;;;0.47;0.47;;;2.20;99.90;;;;;;5012352;28;20285;-73
2022/11/25 13:23:15;;;;;;;0.60;0.60;;;2.20;99.90;;;;;;5012612;28;20692;-73
2022/11/25 13:25:43;;;;;;;0.60;0.60;;;2.20;99.90;;;;;;5012374;28;20682;-73